Time;durP1;ratioP1;P1;durP2;ratioP2;P2;SDS_P1;SDS_P2;PMS_P1;PMS_P2;Temp;Humidity;BMP_temperature;BMP_pressure;BME280_temperature;BME280_humidity;BME280_pressure;Samples;Min_cycle;Max_cycle;Signal;HPM_P1;HPM_P2
2022/05/06 00:01:35;;;;;;;17.92;10.30;;;;;;;;;;5086872;28;20028;-65
2022/05/06 00:04:03;;;;;;;16.10;10.63;;;;;;;;;;5086844;28;20025;-66
2022/05/06 00:06:29;;;;;;;13.45;10.07;;;;;;;;;;5085446;28;20111;-67
2022/05/06 00:08:56;;;;;;;18.25;10.70;;;;;;;;;;5073137;28;20025;-65
2022/05/06 00:11:23;;;;;;;15.65;10.45;;;;;;;;;;5073726;28;20487;-66
2022/05/06 00:13:52;;;;;;;15.35;10.80;;;;;;;;;;5075126;28;20032;-65
2022/05/06 00:16:22;;;;;;;14.95;9.68;;;;;;;;;;5075021;28;20059;-67
2022/05/06 00:18:49;;;;;;;18.70;10.45;;;;;;;;;;5073650;28;20033;-66
2022/05/06 00:21:15;;;;;;;15.45;10.98;;;;;;;;;;5071815;28;20025;-65
2022/05/06 00:23:41;;;;;;;15.25;10.60;;;;;;;;;;5060918;28;20055;-66
2022/05/06 00:26:07;;;;;;;13.95;10.88;;;;;;;;;;5053533;28;20049;-64
2022/05/06 00:28:33;;;;;;;13.30;10.38;;;;;;;;;;5053619;28;20037;-65
2022/05/06 00:31:01;;;;;;;15.02;10.10;;;;;;;;;;5053664;28;20025;-66
2022/05/06 00:33:27;;;;;;;13.25;9.82;;;;;;;;;;5052418;28;20033;-65
2022/05/06 00:35:54;;;;;;;16.58;10.90;;;;;;;;;;5053526;28;20463;-65
2022/05/06 00:38:21;;;;;;;15.75;11.95;;;;;;;;;;5052554;28;20037;-65
2022/05/06 00:40:46;;;;;;;16.58;10.98;;;;;;;;;;5053975;28;20017;-67
2022/05/06 00:43:13;;;;;;;13.63;10.15;;;;;;;;;;5052277;28;20082;-68
2022/05/06 00:45:49;;;;;;;14.20;10.10;;;;;;;;;;5053448;28;20028;-65
2022/05/06 00:48:17;;;;;;;16.52;9.75;;;;;;;;;;5053293;28;20028;-66
2022/05/06 00:50:44;;;;;;;14.55;10.10;;;;;;;;;;5051463;28;20024;-66
2022/05/06 00:53:12;;;;;;;11.45;9.35;;;;;;;;;;5050561;28;20033;-65
2022/05/06 00:55:38;;;;;;;11.98;8.70;;;;;;;;;;5051607;28;20388;-65
2022/05/06 00:58:04;;;;;;;14.25;9.98;;;;;;;;;;5051833;28;20618;-65
2022/05/06 01:00:30;;;;;;;13.65;10.32;;;;;;;;;;5052643;28;20050;-67
2022/05/06 01:02:56;;;;;;;13.70;9.40;;;;;;;;;;5053286;28;20029;-66
2022/05/06 01:05:23;;;;;;;13.15;9.82;;;;;;;;;;5051996;28;20440;-66
2022/05/06 01:07:53;;;;;;;17.02;10.52;;;;;;;;;;5053237;28;20614;-65
2022/05/06 01:10:21;;;;;;;12.75;9.77;;;;;;;;;;5051898;28;20044;-64
2022/05/06 01:12:48;;;;;;;12.45;9.07;;;;;;;;;;5051844;28;20025;-66
2022/05/06 01:15:22;;;;;;;12.15;8.93;;;;;;;;;;5054683;28;20036;-66
2022/05/06 01:17:55;;;;;;;12.38;9.73;;;;;;;;;;5052261;28;20044;-65
2022/05/06 01:20:21;;;;;;;13.82;9.75;;;;;;;;;;5052191;28;20033;-65
2022/05/06 01:22:52;;;;;;;13.38;9.50;;;;;;;;;;5051140;28;20021;-65
2022/05/06 01:25:20;;;;;;;17.65;9.80;;;;;;;;;;5052552;28;20044;-66
2022/05/06 01:27:53;;;;;;;18.20;10.80;;;;;;;;;;5052342;28;20021;-67
2022/05/06 01:30:29;;;;;;;14.90;9.57;;;;;;;;;;5052612;28;20037;-67
2022/05/06 01:32:56;;;;;;;14.52;9.77;;;;;;;;;;5052970;28;20368;-66
2022/05/06 01:35:22;;;;;;;12.20;9.15;;;;;;;;;;5051586;28;20111;-65
2022/05/06 01:37:52;;;;;;;12.52;8.75;;;;;;;;;;5052735;28;20036;-67
2022/05/06 01:40:21;;;;;;;15.35;10.18;;;;;;;;;;5052766;28;20049;-67
2022/05/06 01:42:56;;;;;;;12.38;9.32;;;;;;;;;;5051381;28;20037;-68
2022/05/06 01:45:24;;;;;;;13.80;10.00;;;;;;;;;;5051019;28;20039;-68
2022/05/06 01:47:54;;;;;;;14.95;9.70;;;;;;;;;;5051165;28;20115;-68
2022/05/06 01:50:26;;;;;;;15.05;11.05;;;;;;;;;;5051456;28;20029;-65
2022/05/06 01:52:55;;;;;;;15.85;11.95;;;;;;;;;;5051199;28;20560;-66
2022/05/06 01:55:22;;;;;;;16.83;11.45;;;;;;;;;;5058653;28;20502;-67
2022/05/06 01:58:08;;;;;;;15.70;11.43;;;;;;;;;;5052060;28;20120;-66
2022/05/06 02:00:40;;;;;;;15.57;11.40;;;;;;;;;;5051065;28;20391;-64
2022/05/06 02:05:59;;;;;;;16.35;11.75;;;;;;;;;;5050759;28;20103;-66
2022/05/06 02:08:26;;;;;;;14.80;11.35;;;;;;;;;;5050446;28;20013;-67
2022/05/06 02:10:53;;;;;;;16.73;11.38;;;;;;;;;;5050451;28;20029;-66
2022/05/06 02:13:19;;;;;;;13.98;10.30;;;;;;;;;;5050283;28;20058;-65
2022/05/06 02:16:05;;;;;;;17.30;11.18;;;;;;;;;;5050198;28;20025;-66
2022/05/06 02:18:51;;;;;;;17.92;11.23;;;;;;;;;;5051547;28;20120;-66
2022/05/06 02:21:46;;;;;;;14.27;9.80;;;;;;;;;;5049717;28;20063;-66
2022/05/06 02:24:40;;;;;;;12.90;9.68;;;;;;;;;;5057339;28;20029;-65
2022/05/06 02:27:24;;;;;;;12.48;9.65;;;;;;;;;;5054099;28;20079;-65
2022/05/06 02:35:28;;;;;;;15.23;9.55;;;;;;;;;;5050341;28;20033;-65
2022/05/06 02:37:55;;;;;;;12.38;9.45;;;;;;;;;;5050168;28;20040;-65
2022/05/06 02:40:23;;;;;;;19.27;10.38;;;;;;;;;;5050361;28;20036;-65
2022/05/06 02:42:50;;;;;;;17.88;11.38;;;;;;;;;;5050118;28;20459;-65
2022/05/06 02:45:16;;;;;;;15.77;10.27;;;;;;;;;;5049801;28;20112;-65
2022/05/06 02:47:43;;;;;;;17.77;9.80;;;;;;;;;;5049949;28;20025;-66
2022/05/06 02:50:09;;;;;;;19.02;10.85;;;;;;;;;;5050437;28;20032;-65
2022/05/06 02:52:37;;;;;;;25.23;12.80;;;;;;;;;;5049950;28;20055;-65
2022/05/06 02:55:04;;;;;;;18.17;10.90;;;;;;;;;;5049277;28;20068;-66
2022/05/06 02:57:30;;;;;;;17.23;11.45;;;;;;;;;;5047286;28;20153;-66
2022/05/06 02:59:57;;;;;;;25.52;11.18;;;;;;;;;;5069334;28;20395;-65
2022/05/06 03:02:25;;;;;;;18.75;10.13;;;;;;;;;;5069647;28;20024;-65
2022/05/06 03:04:52;;;;;;;18.20;11.05;;;;;;;;;;5070746;28;20035;-65
2022/05/06 03:07:20;;;;;;;15.40;10.32;;;;;;;;;;5069672;28;20462;-66
2022/05/06 03:09:49;;;;;;;15.18;10.10;;;;;;;;;;5069833;28;20635;-64
2022/05/06 03:12:26;;;;;;;15.38;9.80;;;;;;;;;;5074572;28;20025;-65
2022/05/06 03:14:59;;;;;;;13.25;9.55;;;;;;;;;;5069900;28;20442;-66
2022/05/06 03:17:37;;;;;;;14.48;10.32;;;;;;;;;;5069840;28;20041;-65
2022/05/06 03:20:08;;;;;;;17.20;11.10;;;;;;;;;;5070362;28;20082;-65
2022/05/06 03:22:47;;;;;;;25.77;11.27;;;;;;;;;;5069920;28;20590;-65
2022/05/06 03:25:14;;;;;;;23.15;11.25;;;;;;;;;;5069874;28;20560;-65
2022/05/06 03:30:30;;;;;;;19.23;11.10;;;;;;;;;;5050256;28;20112;-68
2022/05/06 03:33:12;;;;;;;17.17;10.48;;;;;;;;;;5049706;28;20037;-67
2022/05/06 03:35:39;;;;;;;16.75;9.90;;;;;;;;;;5049441;28;20037;-65
2022/05/06 03:38:05;;;;;;;16.55;9.75;;;;;;;;;;5050119;28;20123;-66
2022/05/06 03:40:34;;;;;;;14.07;9.63;;;;;;;;;;5049722;28;20491;-65
2022/05/06 03:43:02;;;;;;;15.63;10.35;;;;;;;;;;5068341;28;20459;-66
2022/05/06 03:45:29;;;;;;;14.80;10.70;;;;;;;;;;5053743;28;20040;-66
2022/05/06 03:48:00;;;;;;;12.35;9.68;;;;;;;;;;5053459;28;20032;-66
2022/05/06 03:53:17;;;;;;;12.40;9.50;;;;;;;;;;5072910;28;20063;-66
2022/05/06 03:55:47;;;;;;;16.00;9.75;;;;;;;;;;5072585;28;20086;-66
2022/05/06 03:58:13;;;;;;;12.32;9.23;;;;;;;;;;5056999;28;20058;-67
2022/05/06 04:00:40;;;;;;;15.82;10.35;;;;;;;;;;5073331;28;20029;-65
2022/05/06 04:03:08;;;;;;;16.38;9.68;;;;;;;;;;5072937;28;20117;-65
2022/05/06 04:05:35;;;;;;;14.60;10.10;;;;;;;;;;5072291;28;20021;-65
2022/05/06 04:08:04;;;;;;;11.15;8.60;;;;;;;;;;5072812;28;20028;-65
2022/05/06 04:10:30;;;;;;;17.13;12.15;;;;;;;;;;5069079;28;20056;-67
2022/05/06 04:12:57;;;;;;;14.23;9.05;;;;;;;;;;5053951;28;20044;-66
2022/05/06 04:15:23;;;;;;;12.32;10.02;;;;;;;;;;5073725;28;20071;-66
2022/05/06 04:17:51;;;;;;;11.27;9.15;;;;;;;;;;5072544;28;20471;-65
2022/05/06 04:25:51;;;;;;;12.10;8.95;;;;;;;;;;5072135;28;20086;-71
2022/05/06 04:28:19;;;;;;;13.13;9.30;;;;;;;;;;5071546;28;20067;-71
2022/05/06 04:30:52;;;;;;;12.60;9.10;;;;;;;;;;5067838;28;20506;-69
2022/05/06 04:33:19;;;;;;;13.35;9.63;;;;;;;;;;5056651;28;20040;-72
2022/05/06 04:35:49;;;;;;;15.38;9.10;;;;;;;;;;5069331;28;20029;-72
2022/05/06 04:38:18;;;;;;;12.90;8.70;;;;;;;;;;5065577;28;20041;-72
2022/05/06 04:40:44;;;;;;;16.20;9.30;;;;;;;;;;5050298;28;20548;-71
2022/05/06 04:43:11;;;;;;;13.20;9.15;;;;;;;;;;5051016;28;20033;-74
2022/05/06 04:45:43;;;;;;;14.23;9.55;;;;;;;;;;5062930;28;20039;-73
2022/05/06 04:48:12;;;;;;;16.92;9.65;;;;;;;;;;5070687;28;20126;-72
2022/05/06 04:50:41;;;;;;;10.85;8.95;;;;;;;;;;5072457;28;20032;-73
2022/05/06 04:53:10;;;;;;;14.52;10.45;;;;;;;;;;5072219;28;20036;-69
2022/05/06 04:55:47;;;;;;;13.57;9.68;;;;;;;;;;5071896;28;20060;-69
2022/05/06 04:58:16;;;;;;;21.95;11.88;;;;;;;;;;5074970;28;20044;-72
2022/05/06 05:00:43;;;;;;;15.35;9.27;;;;;;;;;;5071355;28;20072;-71
2022/05/06 05:03:10;;;;;;;18.63;10.23;;;;;;;;;;5054643;28;20384;-72
2022/05/06 05:05:37;;;;;;;14.30;8.50;;;;;;;;;;5052295;28;20033;-72
2022/05/06 05:08:08;;;;;;;14.50;8.43;;;;;;;;;;5053512;28;20071;-71
2022/05/06 05:10:35;;;;;;;14.93;8.40;;;;;;;;;;5053381;28;20032;-74
2022/05/06 05:13:02;;;;;;;16.83;9.13;;;;;;;;;;5059720;28;20053;-73
2022/05/06 05:15:31;;;;;;;10.50;7.88;;;;;;;;;;5071649;28;20060;-73
2022/05/06 05:17:57;;;;;;;12.25;7.80;;;;;;;;;;5072975;28;20033;-70
2022/05/06 05:20:24;;;;;;;9.52;7.57;;;;;;;;;;5071524;28;20348;-72
2022/05/06 05:22:51;;;;;;;14.38;7.82;;;;;;;;;;5071813;28;20028;-70
2022/05/06 05:25:17;;;;;;;15.52;8.23;;;;;;;;;;5072128;28;20061;-75
2022/05/06 05:27:43;;;;;;;8.68;7.78;;;;;;;;;;5071991;28;20434;-72
2022/05/06 05:30:16;;;;;;;12.18;7.85;;;;;;;;;;5088565;28;20090;-71
2022/05/06 05:32:42;;;;;;;13.30;7.90;;;;;;;;;;5071519;28;20032;-69
2022/05/06 05:35:12;;;;;;;12.75;7.97;;;;;;;;;;5074626;28;20099;-70
2022/05/06 05:37:44;;;;;;;16.45;8.07;;;;;;;;;;5071859;28;20340;-71
2022/05/06 05:40:10;;;;;;;15.50;7.95;;;;;;;;;;5073015;28;20054;-72
2022/05/06 05:42:39;;;;;;;10.27;7.85;;;;;;;;;;5073492;28;20415;-74
2022/05/06 05:50:43;;;;;;;9.90;7.57;;;;;;;;;;5071618;28;20039;-73
2022/05/06 05:53:12;;;;;;;11.77;8.27;;;;;;;;;;5087028;28;20383;-72
2022/05/06 05:55:41;;;;;;;10.25;7.95;;;;;;;;;;5069828;28;20068;-73
2022/05/06 05:58:10;;;;;;;10.75;7.65;;;;;;;;;;5067691;28;20045;-73
2022/05/06 06:00:37;;;;;;;12.40;7.85;;;;;;;;;;5063082;28;20033;-73
2022/05/06 06:03:03;;;;;;;14.30;8.55;;;;;;;;;;5071102;28;20441;-76
2022/05/06 06:05:34;;;;;;;9.25;7.90;;;;;;;;;;5070763;28;20035;-75
2022/05/06 06:08:02;;;;;;;10.55;8.05;;;;;;;;;;5072515;28;20107;-73
2022/05/06 06:10:28;;;;;;;14.82;8.38;;;;;;;;;;5071617;28;20382;-74
2022/05/06 06:12:57;;;;;;;11.55;8.57;;;;;;;;;;5072534;28;20036;-74
2022/05/06 06:15:23;;;;;;;13.45;8.90;;;;;;;;;;5071515;28;20470;-73
2022/05/06 06:17:49;;;;;;;27.02;9.95;;;;;;;;;;5071444;28;20555;-75
2022/05/06 06:20:15;;;;;;;10.77;8.35;;;;;;;;;;5072795;28;20052;-75
2022/05/06 06:22:46;;;;;;;10.55;7.80;;;;;;;;;;5067809;28;20029;-75
2022/05/06 06:25:14;;;;;;;13.88;7.95;;;;;;;;;;5067727;28;20025;-73
2022/05/06 06:27:40;;;;;;;8.93;7.78;;;;;;;;;;5052544;28;20112;-72
2022/05/06 06:30:11;;;;;;;13.98;7.53;;;;;;;;;;5067935;28;20086;-73
2022/05/06 06:32:37;;;;;;;12.98;8.52;;;;;;;;;;5067957;28;20072;-72
2022/05/06 06:35:07;;;;;;;16.25;7.45;;;;;;;;;;5067920;28;20071;-76
2022/05/06 06:37:40;;;;;;;10.27;5.72;;;;;;;;;;5067328;28;20072;-74
2022/05/06 06:40:06;;;;;;;14.65;6.90;;;;;;;;;;5051174;28;20134;-74
2022/05/06 06:42:33;;;;;;;13.27;7.43;;;;;;;;;;5067289;28;20025;-73
2022/05/06 06:45:13;;;;;;;10.57;5.80;;;;;;;;;;5050364;28;20029;-72
2022/05/06 06:48:03;;;;;;;13.57;6.72;;;;;;;;;;5043940;28;20052;-75
2022/05/06 06:50:46;;;;;;;;;;;;;;;;;;5067708;28;20056;-72
2022/05/06 06:53:22;;;;;;;8.85;5.30;;;;;;;;;;5052184;28;19924;-75
2022/05/06 06:55:48;;;;;;;8.32;4.70;;;;;;;;;;5051937;28;20041;-72
2022/05/06 06:58:14;;;;;;;7.30;5.25;;;;;;;;;;5052270;28;20075;-74
2022/05/06 07:00:42;;;;;;;7.82;4.35;;;;;;;;;;5067379;28;20029;-72
2022/05/06 07:03:09;;;;;;;10.45;5.45;;;;;;;;;;5052263;28;20021;-76
2022/05/06 07:05:35;;;;;;;9.15;5.05;;;;;;;;;;5054612;28;20528;-71
2022/05/06 07:13:32;;;;;;;8.52;5.10;;;;;;;;;;5051876;28;20032;-71
2022/05/06 07:15:58;;;;;;;8.20;4.95;;;;;;;;;;5051772;28;20025;-72
2022/05/06 07:18:25;;;;;;;6.57;4.68;;;;;;;;;;5062263;28;20040;-72
2022/05/06 07:20:54;;;;;;;6.07;4.03;;;;;;;;;;5074428;28;20039;-73
2022/05/06 07:23:20;;;;;;;6.95;4.50;;;;;;;;;;5075804;28;20033;-73
2022/05/06 07:25:46;;;;;;;9.57;4.70;;;;;;;;;;5075641;28;20141;-72
2022/05/06 07:28:12;;;;;;;4.95;3.78;;;;;;;;;;5075795;28;20029;-74
2022/05/06 07:30:38;;;;;;;5.10;4.15;;;;;;;;;;5075685;28;20433;-76
2022/05/06 07:33:04;;;;;;;7.78;4.22;;;;;;;;;;5075474;28;20799;-73
2022/05/06 07:35:30;;;;;;;6.82;4.00;;;;;;;;;;5075092;28;20049;-72
2022/05/06 07:37:56;;;;;;;5.38;4.13;;;;;;;;;;5075096;28;20344;-74
2022/05/06 07:40:22;;;;;;;4.38;3.70;;;;;;;;;;5075320;28;20454;-78
2022/05/06 07:42:50;;;;;;;9.13;4.60;;;;;;;;;;5072776;28;20205;-75
2022/05/06 07:45:16;;;;;;;4.45;3.38;;;;;;;;;;5062773;28;20064;-75
2022/05/06 07:47:42;;;;;;;5.70;3.80;;;;;;;;;;5064244;28;20068;-76
2022/05/06 07:50:08;;;;;;;5.38;3.55;;;;;;;;;;5068797;28;20021;-74
2022/05/06 07:52:34;;;;;;;4.93;3.75;;;;;;;;;;5069750;28;20064;-76
2022/05/06 07:55:00;;;;;;;5.75;3.72;;;;;;;;;;5064586;28;20025;-74
2022/05/06 07:57:26;;;;;;;7.15;4.50;;;;;;;;;;5058412;28;20044;-75
2022/05/06 07:59:51;;;;;;;8.68;4.07;;;;;;;;;;5057898;28;20432;-74
2022/05/06 08:05:01;;;;;;;7.53;4.40;;;;;;;;;;5054923;28;20442;-76
2022/05/06 08:07:27;;;;;;;7.85;3.58;;;;;;;;;;5054925;28;20033;-75
2022/05/06 08:09:53;;;;;;;4.57;3.75;;;;;;;;;;5053426;28;20575;-76
2022/05/06 08:12:19;;;;;;;4.28;3.00;;;;;;;;;;5071368;28;20146;-75
2022/05/06 08:14:45;;;;;;;5.63;3.10;;;;;;;;;;5074210;28;20040;-75
2022/05/06 08:17:11;;;;;;;4.75;3.45;;;;;;;;;;5074088;28;20033;-76
2022/05/06 08:19:37;;;;;;;10.18;5.93;;;;;;;;;;5074767;28;20090;-74
2022/05/06 08:22:03;;;;;;;9.35;4.82;;;;;;;;;;5074518;28;20052;-75
2022/05/06 08:24:29;;;;;;;5.05;3.80;;;;;;;;;;5074286;28;20025;-73
2022/05/06 08:26:55;;;;;;;6.53;3.95;;;;;;;;;;5074397;28;20517;-75
2022/05/06 08:29:22;;;;;;;7.38;4.25;;;;;;;;;;5073682;28;20036;-76
2022/05/06 08:31:47;;;;;;;6.25;4.07;;;;;;;;;;5074207;28;20032;-75
2022/05/06 08:34:14;;;;;;;5.05;3.53;;;;;;;;;;5054535;28;20040;-75
2022/05/06 08:36:43;;;;;;;5.55;3.55;;;;;;;;;;5054076;28;20052;-74
2022/05/06 08:39:11;;;;;;;5.25;3.42;;;;;;;;;;5054448;28;20036;-74
2022/05/06 08:41:38;;;;;;;4.57;3.17;;;;;;;;;;5054508;28;20424;-73
2022/05/06 08:52:29;;;;;;;3.95;3.30;;;;;;;;;;5054248;28;20071;-72
2022/05/06 08:54:55;;;;;;;3.90;3.20;;;;;;;;;;5054132;28;20582;-71
2022/05/06 08:57:22;;;;;;;6.85;3.40;;;;;;;;;;5053832;28;20108;-71
2022/05/06 08:59:54;;;;;;;4.10;2.97;;;;;;;;;;5068001;28;20345;-74
2022/05/06 09:02:20;;;;;;;4.65;3.80;;;;;;;;;;5092195;28;20043;-72
2022/05/06 09:04:46;;;;;;;4.53;3.83;;;;;;;;;;5079867;28;20020;-72
2022/05/06 09:07:14;;;;;;;7.22;3.92;;;;;;;;;;5073319;28;20335;-72
2022/05/06 09:09:40;;;;;;;4.80;4.00;;;;;;;;;;5073285;28;20047;-73
2022/05/06 09:17:50;;;;;;;5.75;4.00;;;;;;;;;;5073522;28;20039;-73
2022/05/06 09:20:20;;;;;;;6.78;3.53;;;;;;;;;;5054831;28;20021;-73
2022/05/06 09:22:47;;;;;;;7.53;3.97;;;;;;;;;;5053254;28;20475;-73
2022/05/06 09:25:43;;;;;;;7.20;3.45;;;;;;;;;;5053553;28;20030;-71
2022/05/06 09:28:25;;;;;;;5.18;3.58;;;;;;;;;;5053420;28;20055;-71
2022/05/06 09:31:06;;;;;;;5.72;3.80;;;;;;;;;;5053339;28;20095;-71
2022/05/06 09:33:35;;;;;;;6.80;3.72;;;;;;;;;;5053437;28;20118;-71
2022/05/06 09:36:21;;;;;;;4.90;3.55;;;;;;;;;;5053089;28;20032;-71
2022/05/06 09:39:08;;;;;;;5.55;3.55;;;;;;;;;;5045873;28;20075;-72
2022/05/06 09:41:37;;;;;;;6.85;4.18;;;;;;;;;;5052289;28;20033;-70
2022/05/06 09:44:05;;;;;;;7.70;3.53;;;;;;;;;;5052948;28;20118;-73
2022/05/06 09:46:32;;;;;;;4.88;3.75;;;;;;;;;;5053347;28;20521;-77
2022/05/06 09:49:00;;;;;;;4.68;3.63;;;;;;;;;;5053339;28;20031;-72
2022/05/06 09:51:27;;;;;;;5.18;3.47;;;;;;;;;;5053171;28;20539;-72
2022/05/06 09:53:56;;;;;;;5.03;3.75;;;;;;;;;;5053144;28;20036;-70
2022/05/06 09:56:24;;;;;;;7.55;4.10;;;;;;;;;;5070509;28;20045;-72
2022/05/06 09:58:54;;;;;;;5.85;3.88;;;;;;;;;;5072842;28;20119;-72
2022/05/06 10:01:21;;;;;;;7.05;4.22;;;;;;;;;;5072835;28;20047;-72
2022/05/06 10:03:47;;;;;;;6.82;4.57;;;;;;;;;;5072797;28;20059;-71
2022/05/06 10:06:13;;;;;;;7.03;4.25;;;;;;;;;;5072935;28;20123;-72
2022/05/06 10:08:47;;;;;;;8.95;4.78;;;;;;;;;;5071125;28;20029;-73
2022/05/06 10:11:14;;;;;;;6.82;4.10;;;;;;;;;;5072176;28;20036;-71
2022/05/06 10:13:45;;;;;;;7.10;4.05;;;;;;;;;;5072217;28;20025;-72
2022/05/06 10:16:12;;;;;;;4.95;4.07;;;;;;;;;;5072526;28;20111;-73
2022/05/06 10:18:42;;;;;;;5.78;3.97;;;;;;;;;;5072388;28;20065;-73
2022/05/06 10:21:13;;;;;;;7.40;5.07;;;;;;;;;;5072154;28;20073;-73
2022/05/06 10:23:52;;;;;;;7.35;4.55;;;;;;;;;;5059025;28;20431;-71
2022/05/06 10:26:33;;;;;;;7.75;6.03;;;;;;;;;;5052246;28;20094;-69
2022/05/06 10:34:35;;;;;;;6.25;3.85;;;;;;;;;;5052403;28;20082;-70
2022/05/06 10:37:13;;;;;;;5.57;4.18;;;;;;;;;;5050996;28;20025;-71
2022/05/06 10:39:39;;;;;;;5.70;3.78;;;;;;;;;;5051455;28;20075;-72
2022/05/06 10:42:05;;;;;;;5.57;3.95;;;;;;;;;;5052322;28;20024;-73
2022/05/06 10:44:50;;;;;;;6.72;4.70;;;;;;;;;;5052373;28;20040;-72
2022/05/06 10:47:16;;;;;;;7.00;4.40;;;;;;;;;;5052099;28;20037;-73
2022/05/06 10:49:46;;;;;;;5.55;4.38;;;;;;;;;;5052049;28;20447;-73
2022/05/06 10:52:18;;;;;;;6.15;4.00;;;;;;;;;;5051839;28;20044;-71
2022/05/06 10:54:48;;;;;;;10.43;6.55;;;;;;;;;;5051565;28;20102;-73
2022/05/06 10:57:15;;;;;;;8.85;4.88;;;;;;;;;;5051310;28;20352;-72
2022/05/06 10:59:56;;;;;;;7.47;4.57;;;;;;;;;;5056244;28;20487;-72
2022/05/06 11:02:27;;;;;;;6.05;4.53;;;;;;;;;;5056318;28;20487;-71
2022/05/06 11:04:56;;;;;;;7.25;4.00;;;;;;;;;;5052102;28;20078;-72
2022/05/06 11:07:22;;;;;;;6.00;4.07;;;;;;;;;;5051843;28;20444;-73
2022/05/06 11:09:49;;;;;;;5.93;4.00;;;;;;;;;;5052679;28;20037;-71
2022/05/06 11:12:34;;;;;;;6.10;4.22;;;;;;;;;;5052105;28;20029;-72
2022/05/06 11:15:03;;;;;;;9.30;4.57;;;;;;;;;;5051707;28;20036;-72
2022/05/06 11:17:31;;;;;;;4.97;3.70;;;;;;;;;;5051767;28;20033;-72
2022/05/06 11:19:58;;;;;;;5.88;3.53;;;;;;;;;;5051592;28;20064;-72
2022/05/06 11:22:25;;;;;;;6.60;3.70;;;;;;;;;;5051828;28;20378;-71
2022/05/06 11:24:58;;;;;;;6.22;3.40;;;;;;;;;;5052279;28;20112;-70
2022/05/06 11:27:24;;;;;;;5.82;3.47;;;;;;;;;;5052016;28;20135;-77
2022/05/06 11:29:59;;;;;;;6.00;4.20;;;;;;;;;;5051351;28;20376;-70
2022/05/06 11:32:29;;;;;;;5.95;3.30;;;;;;;;;;5051283;28;20112;-71
2022/05/06 11:34:57;;;;;;;5.00;3.95;;;;;;;;;;5051511;28;20029;-72
2022/05/06 11:37:28;;;;;;;8.20;4.20;;;;;;;;;;5050832;28;20029;-73
2022/05/06 11:42:39;;;;;;;4.57;3.20;;;;;;;;;;5063845;28;20371;-73
2022/05/06 11:47:50;;;;;;;4.35;3.30;;;;;;;;;;5071694;28;20040;-73
2022/05/06 11:50:17;;;;;;;5.20;3.33;;;;;;;;;;5071749;28;20112;-73
2022/05/06 11:52:46;;;;;;;7.50;3.92;;;;;;;;;;5071412;28;20040;-71
2022/05/06 11:55:15;;;;;;;8.10;3.83;;;;;;;;;;5071342;28;20036;-71
2022/05/06 11:57:42;;;;;;;5.90;3.85;;;;;;;;;;5071189;28;20032;-71
2022/05/06 12:00:09;;;;;;;5.70;3.70;;;;;;;;;;5071492;28;20090;-72
2022/05/06 12:03:04;;;;;;;4.43;3.53;;;;;;;;;;5071472;28;20036;-73
2022/05/06 12:05:31;;;;;;;6.55;3.40;;;;;;;;;;5074786;28;20028;-73
2022/05/06 12:07:57;;;;;;;5.75;3.67;;;;;;;;;;5068151;28;20017;-71
2022/05/06 12:10:32;;;;;;;5.15;3.58;;;;;;;;;;5068359;28;20032;-70
2022/05/06 12:13:07;;;;;;;4.85;3.30;;;;;;;;;;5075052;28;20035;-70
2022/05/06 12:15:40;;;;;;;10.38;3.30;;;;;;;;;;5068224;28;20029;-71
2022/05/06 12:18:09;;;;;;;7.05;3.92;;;;;;;;;;5055908;28;20033;-69
2022/05/06 12:20:42;;;;;;;8.85;3.60;;;;;;;;;;5067943;28;20075;-69
2022/05/06 12:23:10;;;;;;;5.28;3.60;;;;;;;;;;5060242;28;20044;-71
2022/05/06 12:25:40;;;;;;;6.00;3.50;;;;;;;;;;5054186;28;20025;-70
2022/05/06 12:28:07;;;;;;;5.35;3.83;;;;;;;;;;5054215;28;20369;-74
2022/05/06 12:30:35;;;;;;;6.97;4.07;;;;;;;;;;5054379;28;20028;-71
2022/05/06 12:33:05;;;;;;;5.90;3.78;;;;;;;;;;5054351;28;20524;-71
2022/05/06 12:35:32;;;;;;;4.95;3.55;;;;;;;;;;5058159;28;20111;-73
2022/05/06 12:38:00;;;;;;;6.20;4.10;;;;;;;;;;5074533;28;20028;-71
2022/05/06 12:40:31;;;;;;;7.10;4.32;;;;;;;;;;5074065;28;20398;-69
2022/05/06 12:43:08;;;;;;;9.52;4.20;;;;;;;;;;5074248;28;20182;-71
2022/05/06 12:45:35;;;;;;;10.18;4.22;;;;;;;;;;5074284;28;20032;-70
2022/05/06 12:50:46;;;;;;;7.43;4.22;;;;;;;;;;5074217;28;20041;-72
2022/05/06 12:53:12;;;;;;;11.45;4.30;;;;;;;;;;5074240;28;20064;-70
2022/05/06 12:55:38;;;;;;;7.13;4.10;;;;;;;;;;5074773;28;20090;-72
2022/05/06 12:58:06;;;;;;;4.13;3.55;;;;;;;;;;5073439;28;20029;-69
2022/05/06 13:00:33;;;;;;;4.78;4.15;;;;;;;;;;5063490;28;20029;-70
2022/05/06 13:03:00;;;;;;;5.85;4.28;;;;;;;;;;5054079;28;20029;-71
2022/05/06 13:05:27;;;;;;;6.72;3.85;;;;;;;;;;5065172;28;20039;-70
2022/05/06 13:07:54;;;;;;;7.10;4.40;;;;;;;;;;5069110;28;20035;-69
2022/05/06 13:10:20;;;;;;;6.07;4.70;;;;;;;;;;5071530;28;20201;-68
2022/05/06 13:12:46;;;;;;;6.57;4.47;;;;;;;;;;5071052;28;20025;-68
2022/05/06 13:15:11;;;;;;;4.78;3.70;;;;;;;;;;5066714;28;20483;-69
2022/05/06 13:17:37;;;;;;;6.18;4.05;;;;;;;;;;5054529;28;20089;-72
2022/05/06 13:20:04;;;;;;;5.70;3.75;;;;;;;;;;5053653;28;20365;-70
2022/05/06 13:22:30;;;;;;;6.32;3.60;;;;;;;;;;5054927;28;20021;-71
2022/05/06 13:24:56;;;;;;;4.30;3.80;;;;;;;;;;5053212;28;20033;-71
2022/05/06 13:27:22;;;;;;;4.32;3.55;;;;;;;;;;5069428;28;20028;-71
2022/05/06 13:29:48;;;;;;;4.95;3.90;;;;;;;;;;5053334;28;20063;-71
2022/05/06 13:32:15;;;;;;;6.47;3.92;;;;;;;;;;5053526;28;20380;-71
2022/05/06 13:34:40;;;;;;;5.70;4.50;;;;;;;;;;5053217;28;20126;-71
2022/05/06 13:37:07;;;;;;;5.80;4.07;;;;;;;;;;5053004;28;21179;-70
2022/05/06 13:39:33;;;;;;;4.53;3.80;;;;;;;;;;5066647;28;20112;-72
2022/05/06 13:41:59;;;;;;;5.05;3.97;;;;;;;;;;5073582;28;20101;-72
2022/05/06 13:44:25;;;;;;;4.75;3.53;;;;;;;;;;5073549;28;20551;-71
2022/05/06 13:46:52;;;;;;;4.20;3.75;;;;;;;;;;5072964;28;20016;-71
2022/05/06 13:49:18;;;;;;;4.63;3.80;;;;;;;;;;5073670;28;20085;-71
2022/05/06 13:51:44;;;;;;;4.20;3.40;;;;;;;;;;5073613;28;20020;-73
2022/05/06 13:54:10;;;;;;;5.25;3.53;;;;;;;;;;5072558;28;20040;-74
2022/05/06 13:59:21;;;;;;;5.25;3.42;;;;;;;;;;5073475;28;20033;-73
2022/05/06 14:01:47;;;;;;;4.03;3.25;;;;;;;;;;5073304;28;20032;-72
2022/05/06 14:04:13;;;;;;;5.05;3.00;;;;;;;;;;5073424;28;20040;-71
2022/05/06 14:06:40;;;;;;;4.57;3.30;;;;;;;;;;5073505;28;20029;-71
2022/05/06 14:09:06;;;;;;;4.43;3.20;;;;;;;;;;5073625;28;20584;-70
2022/05/06 14:11:32;;;;;;;3.65;3.10;;;;;;;;;;5073252;28;20029;-71
2022/05/06 14:13:58;;;;;;;6.80;3.60;;;;;;;;;;5072989;28;20032;-70
2022/05/06 14:16:27;;;;;;;5.15;3.75;;;;;;;;;;5072870;28;20033;-72
2022/05/06 14:18:56;;;;;;;8.63;4.10;;;;;;;;;;5073354;28;20032;-73
2022/05/06 14:21:23;;;;;;;5.70;3.22;;;;;;;;;;5073060;28;20028;-72
2022/05/06 14:23:49;;;;;;;5.57;3.50;;;;;;;;;;5073095;28;20032;-73
2022/05/06 14:26:15;;;;;;;6.93;3.92;;;;;;;;;;5072635;28;20028;-71
2022/05/06 14:28:40;;;;;;;5.53;3.60;;;;;;;;;;5071717;28;20040;-70
2022/05/06 14:31:06;;;;;;;5.25;3.70;;;;;;;;;;5072824;28;20056;-70
2022/05/06 14:33:32;;;;;;;6.90;3.78;;;;;;;;;;5072724;28;20112;-70
2022/05/06 14:35:58;;;;;;;4.60;3.70;;;;;;;;;;5072891;28;20025;-72
2022/05/06 14:38:24;;;;;;;5.00;3.83;;;;;;;;;;5072654;28;20112;-71
2022/05/06 14:40:49;;;;;;;6.70;3.70;;;;;;;;;;5073054;28;20048;-71
2022/05/06 14:43:15;;;;;;;5.97;3.50;;;;;;;;;;5072899;28;20090;-69
2022/05/06 14:45:41;;;;;;;4.82;3.92;;;;;;;;;;5065727;28;20039;-71
2022/05/06 14:48:07;;;;;;;5.22;3.60;;;;;;;;;;5065768;28;20035;-70
2022/05/06 14:50:33;;;;;;;4.13;3.45;;;;;;;;;;5072578;28;20063;-72
2022/05/06 14:52:59;;;;;;;6.22;3.83;;;;;;;;;;5072837;28;20494;-68
2022/05/06 14:55:25;;;;;;;3.90;3.53;;;;;;;;;;5074122;28;20491;-69
2022/05/06 14:57:52;;;;;;;4.68;3.70;;;;;;;;;;5072627;28;20040;-70
2022/05/06 15:00:19;;;;;;;6.82;3.63;;;;;;;;;;5063567;28;20151;-70
2022/05/06 15:02:47;;;;;;;11.90;4.35;;;;;;;;;;5070354;28;20100;-71
2022/05/06 15:05:13;;;;;;;5.28;3.78;;;;;;;;;;5044119;28;20025;-73
2022/05/06 15:07:41;;;;;;;5.85;3.63;;;;;;;;;;5066151;28;20947;-72
2022/05/06 15:10:07;;;;;;;4.55;4.10;;;;;;;;;;5069836;28;20154;-73
2022/05/06 15:12:33;;;;;;;6.78;3.90;;;;;;;;;;5070063;28;20040;-72
2022/05/06 15:14:59;;;;;;;5.13;4.03;;;;;;;;;;5059668;28;20033;-71
2022/05/06 15:17:25;;;;;;;6.00;4.00;;;;;;;;;;5060611;28;20041;-70
2022/05/06 15:19:51;;;;;;;6.20;4.32;;;;;;;;;;5050284;28;20032;-72
2022/05/06 15:22:18;;;;;;;6.55;4.03;;;;;;;;;;5048298;28;20395;-70
2022/05/06 15:24:45;;;;;;;4.82;3.75;;;;;;;;;;5064938;28;20048;-71
2022/05/06 15:27:12;;;;;;;5.00;3.63;;;;;;;;;;5064071;28;20153;-71
2022/05/06 15:29:38;;;;;;;5.03;3.72;;;;;;;;;;5061455;28;20065;-72
2022/05/06 15:32:04;;;;;;;6.93;3.88;;;;;;;;;;5060750;28;20040;-71
2022/05/06 15:34:30;;;;;;;6.13;4.40;;;;;;;;;;5069625;28;20024;-71
2022/05/06 15:36:57;;;;;;;8.02;5.05;;;;;;;;;;5070527;28;20043;-73
2022/05/06 15:39:23;;;;;;;8.55;4.32;;;;;;;;;;5074212;28;20486;-71
2022/05/06 15:41:52;;;;;;;6.07;4.47;;;;;;;;;;5075346;28;20032;-71
2022/05/06 15:44:17;;;;;;;7.18;4.22;;;;;;;;;;5075093;28;20056;-72
2022/05/06 15:46:44;;;;;;;5.75;4.40;;;;;;;;;;5062356;28;20044;-71
2022/05/06 15:49:10;;;;;;;6.03;4.10;;;;;;;;;;5059336;28;20428;-74